sensor_id;sensor_type;location;lat;lon;timestamp;P1;durP1;ratioP1;P2;durP2;ratioP2
74995;SDS011;63545;51.690;5.202;2022-10-16T00:01:29;5.17;;;3.80;;
74995;SDS011;63545;51.690;5.202;2022-10-16T00:03:56;8.52;;;3.95;;
74995;SDS011;63545;51.690;5.202;2022-10-16T00:06:23;9.02;;;3.80;;
74995;SDS011;63545;51.690;5.202;2022-10-16T00:08:49;6.60;;;3.88;;
74995;SDS011;63545;51.690;5.202;2022-10-16T00:11:16;9.60;;;3.83;;
74995;SDS011;63545;51.690;5.202;2022-10-16T00:13:43;8.68;;;3.70;;
74995;SDS011;63545;51.690;5.202;2022-10-16T00:16:09;7.82;;;3.97;;
74995;SDS011;63545;51.690;5.202;2022-10-16T00:18:35;6.55;;;3.72;;
74995;SDS011;63545;51.690;5.202;2022-10-16T00:21:21;8.02;;;3.63;;
74995;SDS011;63545;51.690;5.202;2022-10-16T00:23:53;9.77;;;3.77;;
74995;SDS011;63545;51.690;5.202;2022-10-16T00:26:20;6.82;;;3.70;;
74995;SDS011;63545;51.690;5.202;2022-10-16T00:28:49;8.90;;;4.00;;
74995;SDS011;63545;51.690;5.202;2022-10-16T00:31:15;8.60;;;3.40;;
74995;SDS011;63545;51.690;5.202;2022-10-16T00:33:41;7.75;;;3.97;;
74995;SDS011;63545;51.690;5.202;2022-10-16T00:36:07;8.25;;;3.85;;
74995;SDS011;63545;51.690;5.202;2022-10-16T00:38:35;7.80;;;4.20;;
74995;SDS011;63545;51.690;5.202;2022-10-16T00:41:00;9.20;;;4.90;;
74995;SDS011;63545;51.690;5.202;2022-10-16T00:46:15;6.15;;;4.13;;
74995;SDS011;63545;51.690;5.202;2022-10-16T00:48:52;8.95;;;3.95;;
74995;SDS011;63545;51.690;5.202;2022-10-16T00:51:23;8.05;;;3.80;;
74995;SDS011;63545;51.690;5.202;2022-10-16T00:53:54;6.73;;;4.10;;
74995;SDS011;63545;51.690;5.202;2022-10-16T00:56:19;5.93;;;4.25;;
74995;SDS011;63545;51.690;5.202;2022-10-16T00:58:44;7.87;;;3.70;;
74995;SDS011;63545;51.690;5.202;2022-10-16T01:01:10;6.97;;;4.00;;
74995;SDS011;63545;51.690;5.202;2022-10-16T01:03:36;7.33;;;3.60;;
74995;SDS011;63545;51.690;5.202;2022-10-16T01:08:44;4.90;;;3.70;;
74995;SDS011;63545;51.690;5.202;2022-10-16T01:11:20;10.93;;;3.70;;
74995;SDS011;63545;51.690;5.202;2022-10-16T01:13:55;6.25;;;4.13;;
74995;SDS011;63545;51.690;5.202;2022-10-16T01:16:34;7.25;;;3.80;;
74995;SDS011;63545;51.690;5.202;2022-10-16T01:19:12;8.10;;;3.80;;
74995;SDS011;63545;51.690;5.202;2022-10-16T01:21:44;5.97;;;3.57;;
74995;SDS011;63545;51.690;5.202;2022-10-16T01:24:31;7.30;;;3.50;;
74995;SDS011;63545;51.690;5.202;2022-10-16T01:29:48;8.48;;;3.67;;
74995;SDS011;63545;51.690;5.202;2022-10-16T01:32:33;7.57;;;3.33;;
74995;SDS011;63545;51.690;5.202;2022-10-16T01:35:02;4.60;;;3.30;;
74995;SDS011;63545;51.690;5.202;2022-10-16T01:37:41;5.20;;;3.10;;
74995;SDS011;63545;51.690;5.202;2022-10-16T01:40:22;7.93;;;3.15;;
74995;SDS011;63545;51.690;5.202;2022-10-16T01:42:53;5.07;;;2.97;;
74995;SDS011;63545;51.690;5.202;2022-10-16T01:45:22;4.40;;;3.20;;
74995;SDS011;63545;51.690;5.202;2022-10-16T01:47:48;5.77;;;3.10;;
74995;SDS011;63545;51.690;5.202;2022-10-16T01:50:15;6.18;;;3.40;;
74995;SDS011;63545;51.690;5.202;2022-10-16T01:52:42;8.20;;;3.20;;
74995;SDS011;63545;51.690;5.202;2022-10-16T01:55:10;5.30;;;3.25;;
74995;SDS011;63545;51.690;5.202;2022-10-16T01:57:37;5.28;;;3.40;;
74995;SDS011;63545;51.690;5.202;2022-10-16T02:00:07;5.22;;;3.30;;
74995;SDS011;63545;51.690;5.202;2022-10-16T02:02:34;6.47;;;3.10;;
74995;SDS011;63545;51.690;5.202;2022-10-16T02:07:45;6.97;;;3.28;;
74995;SDS011;63545;51.690;5.202;2022-10-16T02:10:12;5.10;;;3.30;;
74995;SDS011;63545;51.690;5.202;2022-10-16T02:12:40;6.38;;;3.25;;
74995;SDS011;63545;51.690;5.202;2022-10-16T02:15:08;4.27;;;2.97;;
74995;SDS011;63545;51.690;5.202;2022-10-16T02:17:34;5.32;;;2.97;;
74995;SDS011;63545;51.690;5.202;2022-10-16T02:20:00;5.85;;;3.30;;
74995;SDS011;63545;51.690;5.202;2022-10-16T02:25:00;5.50;;;2.90;;
74995;SDS011;63545;51.690;5.202;2022-10-16T02:31:01;6.00;;;3.08;;
74995;SDS011;63545;51.690;5.202;2022-10-16T02:33:08;9.20;;;3.15;;
74995;SDS011;63545;51.690;5.202;2022-10-16T02:35:35;7.00;;;3.27;;
74995;SDS011;63545;51.690;5.202;2022-10-16T02:38:01;4.45;;;3.13;;
74995;SDS011;63545;51.690;5.202;2022-10-16T02:40:26;4.77;;;3.27;;
74995;SDS011;63545;51.690;5.202;2022-10-16T02:42:53;5.32;;;2.70;;
74995;SDS011;63545;51.690;5.202;2022-10-16T02:45:19;6.82;;;3.20;;
74995;SDS011;63545;51.690;5.202;2022-10-16T02:47:44;5.30;;;3.10;;
74995;SDS011;63545;51.690;5.202;2022-10-16T02:50:10;5.07;;;3.00;;
74995;SDS011;63545;51.690;5.202;2022-10-16T02:52:35;5.00;;;3.10;;
74995;SDS011;63545;51.690;5.202;2022-10-16T02:55:00;7.53;;;2.70;;
74995;SDS011;63545;51.690;5.202;2022-10-16T02:57:26;3.40;;;2.67;;
74995;SDS011;63545;51.690;5.202;2022-10-16T02:59:51;4.17;;;2.70;;
74995;SDS011;63545;51.690;5.202;2022-10-16T03:02:17;4.43;;;2.67;;
74995;SDS011;63545;51.690;5.202;2022-10-16T03:04:42;3.73;;;2.67;;
74995;SDS011;63545;51.690;5.202;2022-10-16T03:07:10;3.83;;;2.80;;
74995;SDS011;63545;51.690;5.202;2022-10-16T03:09:35;4.87;;;3.00;;
74995;SDS011;63545;51.690;5.202;2022-10-16T03:12:00;3.27;;;2.70;;
74995;SDS011;63545;51.690;5.202;2022-10-16T03:14:26;5.23;;;2.70;;
74995;SDS011;63545;51.690;5.202;2022-10-16T03:16:51;5.47;;;2.70;;
74995;SDS011;63545;51.690;5.202;2022-10-16T03:19:17;3.87;;;2.50;;
74995;SDS011;63545;51.690;5.202;2022-10-16T03:21:43;4.57;;;2.35;;
74995;SDS011;63545;51.690;5.202;2022-10-16T03:24:08;4.43;;;2.80;;
74995;SDS011;63545;51.690;5.202;2022-10-16T03:26:33;3.67;;;2.70;;
74995;SDS011;63545;51.690;5.202;2022-10-16T03:28:59;3.25;;;2.20;;
74995;SDS011;63545;51.690;5.202;2022-10-16T03:31:24;4.20;;;2.43;;
74995;SDS011;63545;51.690;5.202;2022-10-16T03:33:49;6.47;;;2.37;;
74995;SDS011;63545;51.690;5.202;2022-10-16T03:36:15;5.47;;;2.80;;
74995;SDS011;63545;51.690;5.202;2022-10-16T03:38:40;4.13;;;2.87;;
74995;SDS011;63545;51.690;5.202;2022-10-16T03:41:05;4.10;;;2.63;;
74995;SDS011;63545;51.690;5.202;2022-10-16T03:43:32;3.85;;;2.70;;
74995;SDS011;63545;51.690;5.202;2022-10-16T03:45:58;4.33;;;2.97;;
74995;SDS011;63545;51.690;5.202;2022-10-16T03:48:23;4.80;;;3.00;;
74995;SDS011;63545;51.690;5.202;2022-10-16T03:50:48;6.47;;;3.00;;
74995;SDS011;63545;51.690;5.202;2022-10-16T03:53:15;5.90;;;2.80;;
74995;SDS011;63545;51.690;5.202;2022-10-16T03:55:41;7.53;;;2.70;;
74995;SDS011;63545;51.690;5.202;2022-10-16T03:58:07;3.83;;;2.70;;
74995;SDS011;63545;51.690;5.202;2022-10-16T04:00:32;4.40;;;2.30;;
74995;SDS011;63545;51.690;5.202;2022-10-16T04:02:57;4.60;;;2.80;;
74995;SDS011;63545;51.690;5.202;2022-10-16T04:05:23;5.15;;;2.60;;
74995;SDS011;63545;51.690;5.202;2022-10-16T04:07:48;5.50;;;2.80;;
74995;SDS011;63545;51.690;5.202;2022-10-16T04:10:14;7.07;;;2.33;;
74995;SDS011;63545;51.690;5.202;2022-10-16T04:12:39;6.23;;;2.40;;
74995;SDS011;63545;51.690;5.202;2022-10-16T04:15:04;2.93;;;2.50;;
74995;SDS011;63545;51.690;5.202;2022-10-16T04:17:30;5.20;;;2.50;;
74995;SDS011;63545;51.690;5.202;2022-10-16T04:19:55;6.67;;;2.87;;
74995;SDS011;63545;51.690;5.202;2022-10-16T04:22:21;5.83;;;3.10;;
74995;SDS011;63545;51.690;5.202;2022-10-16T04:24:46;5.90;;;2.50;;
74995;SDS011;63545;51.690;5.202;2022-10-16T04:27:11;4.73;;;2.80;;
74995;SDS011;63545;51.690;5.202;2022-10-16T04:29:37;5.53;;;3.17;;
74995;SDS011;63545;51.690;5.202;2022-10-16T04:32:02;4.20;;;2.80;;
74995;SDS011;63545;51.690;5.202;2022-10-16T04:34:27;4.53;;;2.72;;
74995;SDS011;63545;51.690;5.202;2022-10-16T04:36:52;6.37;;;2.90;;
74995;SDS011;63545;51.690;5.202;2022-10-16T04:39:18;8.27;;;3.10;;
74995;SDS011;63545;51.690;5.202;2022-10-16T04:41:43;5.60;;;3.17;;
74995;SDS011;63545;51.690;5.202;2022-10-16T04:44:08;7.43;;;3.00;;
74995;SDS011;63545;51.690;5.202;2022-10-16T04:46:34;4.73;;;2.80;;
74995;SDS011;63545;51.690;5.202;2022-10-16T04:48:59;5.35;;;2.67;;
74995;SDS011;63545;51.690;5.202;2022-10-16T04:51:25;4.27;;;2.60;;
74995;SDS011;63545;51.690;5.202;2022-10-16T04:53:51;4.30;;;2.75;;
74995;SDS011;63545;51.690;5.202;2022-10-16T04:56:16;6.63;;;3.07;;
74995;SDS011;63545;51.690;5.202;2022-10-16T04:58:42;4.80;;;3.00;;
74995;SDS011;63545;51.690;5.202;2022-10-16T05:01:07;7.10;;;3.00;;
74995;SDS011;63545;51.690;5.202;2022-10-16T05:03:32;6.10;;;3.00;;
74995;SDS011;63545;51.690;5.202;2022-10-16T05:05:58;5.73;;;2.80;;
74995;SDS011;63545;51.690;5.202;2022-10-16T05:08:23;5.07;;;2.83;;
74995;SDS011;63545;51.690;5.202;2022-10-16T05:10:48;5.40;;;3.47;;
74995;SDS011;63545;51.690;5.202;2022-10-16T05:13:14;7.77;;;3.03;;
74995;SDS011;63545;51.690;5.202;2022-10-16T05:15:39;6.33;;;3.17;;
74995;SDS011;63545;51.690;5.202;2022-10-16T05:18:04;6.10;;;3.10;;
74995;SDS011;63545;51.690;5.202;2022-10-16T05:20:30;6.40;;;2.87;;
74995;SDS011;63545;51.690;5.202;2022-10-16T05:22:55;4.32;;;2.95;;
74995;SDS011;63545;51.690;5.202;2022-10-16T05:25:20;5.10;;;3.20;;
74995;SDS011;63545;51.690;5.202;2022-10-16T05:27:49;4.87;;;2.90;;
74995;SDS011;63545;51.690;5.202;2022-10-16T05:30:15;6.13;;;3.25;;
74995;SDS011;63545;51.690;5.202;2022-10-16T05:32:41;5.13;;;3.37;;
74995;SDS011;63545;51.690;5.202;2022-10-16T05:35:06;6.33;;;2.70;;
74995;SDS011;63545;51.690;5.202;2022-10-16T05:37:32;5.20;;;3.10;;
74995;SDS011;63545;51.690;5.202;2022-10-16T05:39:57;5.93;;;3.30;;
74995;SDS011;63545;51.690;5.202;2022-10-16T05:42:23;6.33;;;3.10;;
74995;SDS011;63545;51.690;5.202;2022-10-16T05:44:48;5.97;;;3.00;;
74995;SDS011;63545;51.690;5.202;2022-10-16T05:47:13;11.20;;;3.30;;
74995;SDS011;63545;51.690;5.202;2022-10-16T05:49:39;4.00;;;3.30;;
74995;SDS011;63545;51.690;5.202;2022-10-16T05:52:04;5.60;;;3.40;;
74995;SDS011;63545;51.690;5.202;2022-10-16T05:54:30;5.00;;;2.83;;
74995;SDS011;63545;51.690;5.202;2022-10-16T05:56:55;5.90;;;3.43;;
74995;SDS011;63545;51.690;5.202;2022-10-16T05:59:20;5.03;;;3.40;;
74995;SDS011;63545;51.690;5.202;2022-10-16T06:01:46;5.93;;;3.00;;
74995;SDS011;63545;51.690;5.202;2022-10-16T06:04:11;6.00;;;3.35;;
74995;SDS011;63545;51.690;5.202;2022-10-16T06:06:36;7.20;;;2.97;;
74995;SDS011;63545;51.690;5.202;2022-10-16T06:09:02;5.83;;;3.30;;
74995;SDS011;63545;51.690;5.202;2022-10-16T06:11:29;5.55;;;3.33;;
74995;SDS011;63545;51.690;5.202;2022-10-16T06:13:56;8.88;;;3.35;;
74995;SDS011;63545;51.690;5.202;2022-10-16T06:16:24;7.27;;;3.20;;
74995;SDS011;63545;51.690;5.202;2022-10-16T06:18:50;5.32;;;3.10;;
74995;SDS011;63545;51.690;5.202;2022-10-16T06:21:18;6.72;;;3.28;;
74995;SDS011;63545;51.690;5.202;2022-10-16T06:23:49;6.43;;;3.00;;
74995;SDS011;63545;51.690;5.202;2022-10-16T06:26:16;5.97;;;3.03;;
74995;SDS011;63545;51.690;5.202;2022-10-16T06:28:43;8.63;;;3.58;;
74995;SDS011;63545;51.690;5.202;2022-10-16T06:31:09;5.90;;;3.30;;
74995;SDS011;63545;51.690;5.202;2022-10-16T06:33:35;6.57;;;3.30;;
74995;SDS011;63545;51.690;5.202;2022-10-16T06:36:02;5.07;;;3.50;;
74995;SDS011;63545;51.690;5.202;2022-10-16T06:38:32;7.82;;;3.35;;
74995;SDS011;63545;51.690;5.202;2022-10-16T06:40:57;6.72;;;3.25;;
74995;SDS011;63545;51.690;5.202;2022-10-16T06:43:23;9.95;;;3.53;;
74995;SDS011;63545;51.690;5.202;2022-10-16T06:45:52;5.97;;;3.13;;
74995;SDS011;63545;51.690;5.202;2022-10-16T06:48:22;6.53;;;3.58;;
74995;SDS011;63545;51.690;5.202;2022-10-16T06:50:57;4.53;;;3.70;;
74995;SDS011;63545;51.690;5.202;2022-10-16T06:53:30;5.70;;;3.27;;
74995;SDS011;63545;51.690;5.202;2022-10-16T06:55:57;8.52;;;3.00;;
74995;SDS011;63545;51.690;5.202;2022-10-16T06:58:22;8.15;;;3.45;;
74995;SDS011;63545;51.690;5.202;2022-10-16T07:00:48;6.07;;;3.20;;
74995;SDS011;63545;51.690;5.202;2022-10-16T07:03:13;8.47;;;3.40;;
74995;SDS011;63545;51.690;5.202;2022-10-16T07:05:39;8.65;;;3.05;;
74995;SDS011;63545;51.690;5.202;2022-10-16T07:08:05;6.05;;;3.00;;
74995;SDS011;63545;51.690;5.202;2022-10-16T07:10:31;8.70;;;2.97;;
74995;SDS011;63545;51.690;5.202;2022-10-16T07:12:57;6.80;;;2.83;;
74995;SDS011;63545;51.690;5.202;2022-10-16T07:15:22;7.10;;;3.27;;
74995;SDS011;63545;51.690;5.202;2022-10-16T07:17:48;8.20;;;3.30;;
74995;SDS011;63545;51.690;5.202;2022-10-16T07:20:13;6.60;;;3.30;;
74995;SDS011;63545;51.690;5.202;2022-10-16T07:22:38;9.03;;;3.60;;
74995;SDS011;63545;51.690;5.202;2022-10-16T07:25:04;6.83;;;3.50;;
74995;SDS011;63545;51.690;5.202;2022-10-16T07:27:29;7.38;;;3.40;;
74995;SDS011;63545;51.690;5.202;2022-10-16T07:29:55;6.13;;;3.50;;
74995;SDS011;63545;51.690;5.202;2022-10-16T07:32:20;6.83;;;3.60;;
74995;SDS011;63545;51.690;5.202;2022-10-16T07:34:45;8.37;;;3.53;;
74995;SDS011;63545;51.690;5.202;2022-10-16T07:37:11;8.23;;;3.60;;
74995;SDS011;63545;51.690;5.202;2022-10-16T07:39:36;6.22;;;3.38;;
74995;SDS011;63545;51.690;5.202;2022-10-16T07:42:01;8.20;;;3.83;;
74995;SDS011;63545;51.690;5.202;2022-10-16T07:44:27;6.80;;;3.53;;
74995;SDS011;63545;51.690;5.202;2022-10-16T07:46:52;7.07;;;3.30;;
74995;SDS011;63545;51.690;5.202;2022-10-16T07:49:17;8.60;;;3.60;;
74995;SDS011;63545;51.690;5.202;2022-10-16T07:51:43;7.57;;;3.30;;
74995;SDS011;63545;51.690;5.202;2022-10-16T07:54:09;8.40;;;3.43;;
74995;SDS011;63545;51.690;5.202;2022-10-16T07:56:34;6.95;;;3.22;;
74995;SDS011;63545;51.690;5.202;2022-10-16T07:59:00;5.23;;;3.30;;
74995;SDS011;63545;51.690;5.202;2022-10-16T08:01:25;6.38;;;3.30;;
74995;SDS011;63545;51.690;5.202;2022-10-16T08:03:51;10.10;;;3.50;;
74995;SDS011;63545;51.690;5.202;2022-10-16T08:06:17;7.50;;;3.10;;
74995;SDS011;63545;51.690;5.202;2022-10-16T08:08:43;7.40;;;3.10;;
74995;SDS011;63545;51.690;5.202;2022-10-16T08:11:08;6.87;;;2.97;;
74995;SDS011;63545;51.690;5.202;2022-10-16T08:13:34;6.07;;;3.00;;
74995;SDS011;63545;51.690;5.202;2022-10-16T08:15:59;6.77;;;3.37;;
74995;SDS011;63545;51.690;5.202;2022-10-16T08:18:25;5.32;;;2.90;;
74995;SDS011;63545;51.690;5.202;2022-10-16T08:20:57;9.80;;;3.17;;
74995;SDS011;63545;51.690;5.202;2022-10-16T08:23:23;8.80;;;3.10;;
74995;SDS011;63545;51.690;5.202;2022-10-16T08:25:50;6.77;;;3.00;;
74995;SDS011;63545;51.690;5.202;2022-10-16T08:28:16;8.88;;;3.00;;
74995;SDS011;63545;51.690;5.202;2022-10-16T08:30:41;5.43;;;2.97;;
74995;SDS011;63545;51.690;5.202;2022-10-16T08:33:07;5.77;;;2.70;;
74995;SDS011;63545;51.690;5.202;2022-10-16T08:35:32;7.93;;;3.10;;
74995;SDS011;63545;51.690;5.202;2022-10-16T08:37:57;4.70;;;2.70;;
74995;SDS011;63545;51.690;5.202;2022-10-16T08:40:27;8.23;;;2.80;;
74995;SDS011;63545;51.690;5.202;2022-10-16T08:48:45;8.93;;;2.70;;
74995;SDS011;63545;51.690;5.202;2022-10-16T08:51:22;7.78;;;3.05;;
74995;SDS011;63545;51.690;5.202;2022-10-16T08:53:55;6.82;;;2.70;;
74995;SDS011;63545;51.690;5.202;2022-10-16T08:56:22;7.50;;;2.70;;
74995;SDS011;63545;51.690;5.202;2022-10-16T08:58:47;11.33;;;2.87;;
74995;SDS011;63545;51.690;5.202;2022-10-16T09:01:14;12.13;;;2.88;;
74995;SDS011;63545;51.690;5.202;2022-10-16T09:06:29;6.68;;;2.50;;
74995;SDS011;63545;51.690;5.202;2022-10-16T09:12:52;12.27;;;2.53;;
74995;SDS011;63545;51.690;5.202;2022-10-16T09:21:15;8.48;;;2.50;;
74995;SDS011;63545;51.690;5.202;2022-10-16T09:23:45;9.37;;;2.50;;
74995;SDS011;63545;51.690;5.202;2022-10-16T09:26:12;7.78;;;2.78;;
74995;SDS011;63545;51.690;5.202;2022-10-16T09:28:40;11.32;;;2.78;;
74995;SDS011;63545;51.690;5.202;2022-10-16T09:31:18;10.48;;;2.90;;
74995;SDS011;63545;51.690;5.202;2022-10-16T09:33:45;10.27;;;2.67;;
74995;SDS011;63545;51.690;5.202;2022-10-16T09:36:13;11.25;;;2.63;;
74995;SDS011;63545;51.690;5.202;2022-10-16T09:38:40;10.68;;;2.67;;
74995;SDS011;63545;51.690;5.202;2022-10-16T09:41:19;13.23;;;2.92;;
74995;SDS011;63545;51.690;5.202;2022-10-16T09:46:30;13.87;;;2.87;;
74995;SDS011;63545;51.690;5.202;2022-10-16T09:48:57;14.32;;;2.60;;
74995;SDS011;63545;51.690;5.202;2022-10-16T09:51:26;15.75;;;2.92;;
74995;SDS011;63545;51.690;5.202;2022-10-16T09:56:30;9.20;;;2.63;;
74995;SDS011;63545;51.690;5.202;2022-10-16T09:59:16;10.77;;;2.50;;
74995;SDS011;63545;51.690;5.202;2022-10-16T10:04:13;9.30;;;2.35;;
74995;SDS011;63545;51.690;5.202;2022-10-16T10:12:01;16.17;;;2.85;;
74995;SDS011;63545;51.690;5.202;2022-10-16T10:14:44;11.50;;;2.63;;
74995;SDS011;63545;51.690;5.202;2022-10-16T10:17:21;12.10;;;2.60;;
74995;SDS011;63545;51.690;5.202;2022-10-16T10:19:57;11.27;;;2.40;;
74995;SDS011;63545;51.690;5.202;2022-10-16T10:27:32;13.50;;;2.53;;
74995;SDS011;63545;51.690;5.202;2022-10-16T10:30:08;12.30;;;2.55;;
74995;SDS011;63545;51.690;5.202;2022-10-16T10:32:45;16.20;;;2.53;;
74995;SDS011;63545;51.690;5.202;2022-10-16T10:40:52;19.23;;;2.92;;
74995;SDS011;63545;51.690;5.202;2022-10-16T10:46:05;13.90;;;2.50;;
74995;SDS011;63545;51.690;5.202;2022-10-16T10:48:42;14.53;;;2.63;;
74995;SDS011;63545;51.690;5.202;2022-10-16T10:51:22;10.52;;;2.30;;
74995;SDS011;63545;51.690;5.202;2022-10-16T10:54:03;16.80;;;2.78;;
74995;SDS011;63545;51.690;5.202;2022-10-16T10:56:47;15.90;;;3.03;;
74995;SDS011;63545;51.690;5.202;2022-10-16T11:02:48;16.90;;;2.40;;
74995;SDS011;63545;51.690;5.202;2022-10-16T11:08:02;12.35;;;2.30;;
74995;SDS011;63545;51.690;5.202;2022-10-16T11:10:53;12.95;;;2.67;;
74995;SDS011;63545;51.690;5.202;2022-10-16T11:13:23;11.38;;;2.40;;
74995;SDS011;63545;51.690;5.202;2022-10-16T11:15:53;13.83;;;2.60;;
74995;SDS011;63545;51.690;5.202;2022-10-16T11:18:24;11.40;;;2.55;;
74995;SDS011;63545;51.690;5.202;2022-10-16T11:21:00;14.27;;;2.80;;
74995;SDS011;63545;51.690;5.202;2022-10-16T11:23:39;10.68;;;2.45;;
74995;SDS011;63545;51.690;5.202;2022-10-16T11:26:13;12.63;;;2.75;;
74995;SDS011;63545;51.690;5.202;2022-10-16T11:28:45;11.47;;;2.83;;
74995;SDS011;63545;51.690;5.202;2022-10-16T11:41:52;14.27;;;2.77;;
74995;SDS011;63545;51.690;5.202;2022-10-16T11:47:45;11.93;;;2.88;;
74995;SDS011;63545;51.690;5.202;2022-10-16T11:49:52;14.40;;;2.60;;
74995;SDS011;63545;51.690;5.202;2022-10-16T11:55:13;10.63;;;2.60;;
74995;SDS011;63545;51.690;5.202;2022-10-16T11:57:46;11.43;;;2.60;;
74995;SDS011;63545;51.690;5.202;2022-10-16T12:00:31;15.93;;;2.08;;
74995;SDS011;63545;51.690;5.202;2022-10-16T12:08:21;13.60;;;2.40;;
74995;SDS011;63545;51.690;5.202;2022-10-16T12:10:47;14.15;;;2.53;;
74995;SDS011;63545;51.690;5.202;2022-10-16T12:13:34;16.35;;;2.50;;
74995;SDS011;63545;51.690;5.202;2022-10-16T12:16:05;11.37;;;2.23;;
74995;SDS011;63545;51.690;5.202;2022-10-16T12:18:33;13.50;;;2.88;;
74995;SDS011;63545;51.690;5.202;2022-10-16T12:20:59;16.40;;;2.23;;
74995;SDS011;63545;51.690;5.202;2022-10-16T12:23:32;10.30;;;2.53;;
74995;SDS011;63545;51.690;5.202;2022-10-16T12:25:59;14.80;;;3.05;;
74995;SDS011;63545;51.690;5.202;2022-10-16T12:28:29;13.95;;;2.80;;
74995;SDS011;63545;51.690;5.202;2022-10-16T12:30:59;12.40;;;2.67;;
74995;SDS011;63545;51.690;5.202;2022-10-16T12:33:27;9.40;;;2.10;;
74995;SDS011;63545;51.690;5.202;2022-10-16T12:35:54;14.23;;;2.55;;
74995;SDS011;63545;51.690;5.202;2022-10-16T12:38:21;16.25;;;2.70;;
74995;SDS011;63545;51.690;5.202;2022-10-16T12:41:01;16.10;;;2.50;;
74995;SDS011;63545;51.690;5.202;2022-10-16T12:43:36;12.37;;;2.47;;
74995;SDS011;63545;51.690;5.202;2022-10-16T12:48:35;13.85;;;2.70;;
74995;SDS011;63545;51.690;5.202;2022-10-16T12:51:11;12.27;;;2.75;;
74995;SDS011;63545;51.690;5.202;2022-10-16T12:53:38;11.80;;;2.38;;
74995;SDS011;63545;51.690;5.202;2022-10-16T12:56:09;12.47;;;2.13;;
74995;SDS011;63545;51.690;5.202;2022-10-16T13:01:24;14.65;;;2.50;;
74995;SDS011;63545;51.690;5.202;2022-10-16T13:04:04;12.82;;;2.60;;
74995;SDS011;63545;51.690;5.202;2022-10-16T13:06:59;11.57;;;2.40;;
74995;SDS011;63545;51.690;5.202;2022-10-16T13:09:33;9.73;;;2.30;;
74995;SDS011;63545;51.690;5.202;2022-10-16T13:12:20;14.38;;;2.80;;
74995;SDS011;63545;51.690;5.202;2022-10-16T13:25:28;12.13;;;2.45;;
74995;SDS011;63545;51.690;5.202;2022-10-16T13:28:17;14.93;;;2.42;;
74995;SDS011;63545;51.690;5.202;2022-10-16T13:30:54;13.57;;;2.83;;
74995;SDS011;63545;51.690;5.202;2022-10-16T13:36:03;14.40;;;2.63;;
74995;SDS011;63545;51.690;5.202;2022-10-16T13:38:30;13.77;;;2.50;;
74995;SDS011;63545;51.690;5.202;2022-10-16T13:41:04;11.27;;;2.90;;
74995;SDS011;63545;51.690;5.202;2022-10-16T13:43:45;13.05;;;2.67;;
74995;SDS011;63545;51.690;5.202;2022-10-16T13:46:13;12.65;;;2.80;;
74995;SDS011;63545;51.690;5.202;2022-10-16T13:48:39;13.27;;;2.70;;
74995;SDS011;63545;51.690;5.202;2022-10-16T13:51:15;12.07;;;2.22;;
74995;SDS011;63545;51.690;5.202;2022-10-16T13:53:42;12.27;;;2.70;;
74995;SDS011;63545;51.690;5.202;2022-10-16T13:56:16;11.43;;;2.72;;
74995;SDS011;63545;51.690;5.202;2022-10-16T13:58:57;14.07;;;2.85;;
74995;SDS011;63545;51.690;5.202;2022-10-16T14:01:28;11.43;;;2.73;;
74995;SDS011;63545;51.690;5.202;2022-10-16T14:03:59;15.75;;;2.95;;
74995;SDS011;63545;51.690;5.202;2022-10-16T14:06:35;9.02;;;2.50;;
74995;SDS011;63545;51.690;5.202;2022-10-16T14:11:31;12.23;;;2.38;;
74995;SDS011;63545;51.690;5.202;2022-10-16T14:13:56;8.20;;;2.23;;
74995;SDS011;63545;51.690;5.202;2022-10-16T14:16:23;9.03;;;2.23;;
74995;SDS011;63545;51.690;5.202;2022-10-16T14:19:00;6.68;;;2.13;;
74995;SDS011;63545;51.690;5.202;2022-10-16T14:21:28;9.07;;;2.50;;
74995;SDS011;63545;51.690;5.202;2022-10-16T14:23:54;13.07;;;2.20;;
74995;SDS011;63545;51.690;5.202;2022-10-16T14:26:22;12.15;;;2.50;;
74995;SDS011;63545;51.690;5.202;2022-10-16T14:29:00;6.10;;;2.22;;
74995;SDS011;63545;51.690;5.202;2022-10-16T14:31:33;6.18;;;2.20;;
74995;SDS011;63545;51.690;5.202;2022-10-16T14:34:01;13.90;;;2.97;;
74995;SDS011;63545;51.690;5.202;2022-10-16T14:36:27;11.70;;;2.50;;
74995;SDS011;63545;51.690;5.202;2022-10-16T14:39:06;8.55;;;2.30;;
74995;SDS011;63545;51.690;5.202;2022-10-16T14:41:43;10.20;;;2.10;;
74995;SDS011;63545;51.690;5.202;2022-10-16T14:44:10;11.05;;;2.30;;
74995;SDS011;63545;51.690;5.202;2022-10-16T14:46:37;8.23;;;2.50;;
74995;SDS011;63545;51.690;5.202;2022-10-16T14:49:25;12.27;;;2.50;;
74995;SDS011;63545;51.690;5.202;2022-10-16T14:51:50;9.48;;;2.72;;
74995;SDS011;63545;51.690;5.202;2022-10-16T14:54:17;12.13;;;2.93;;
74995;SDS011;63545;51.690;5.202;2022-10-16T14:59:14;9.93;;;2.30;;
74995;SDS011;63545;51.690;5.202;2022-10-16T15:01:42;11.50;;;2.60;;
74995;SDS011;63545;51.690;5.202;2022-10-16T15:04:09;7.97;;;2.55;;
74995;SDS011;63545;51.690;5.202;2022-10-16T15:06:37;10.40;;;2.40;;
74995;SDS011;63545;51.690;5.202;2022-10-16T15:09:02;7.03;;;2.33;;
74995;SDS011;63545;51.690;5.202;2022-10-16T15:11:28;10.50;;;2.87;;
74995;SDS011;63545;51.690;5.202;2022-10-16T15:13:53;7.70;;;2.37;;
74995;SDS011;63545;51.690;5.202;2022-10-16T15:16:18;10.17;;;2.70;;
74995;SDS011;63545;51.690;5.202;2022-10-16T15:18:44;15.07;;;2.67;;
74995;SDS011;63545;51.690;5.202;2022-10-16T15:23:54;8.73;;;2.30;;
74995;SDS011;63545;51.690;5.202;2022-10-16T15:26:21;8.48;;;2.38;;
74995;SDS011;63545;51.690;5.202;2022-10-16T15:28:46;10.70;;;2.60;;
74995;SDS011;63545;51.690;5.202;2022-10-16T15:31:12;8.18;;;2.70;;
74995;SDS011;63545;51.690;5.202;2022-10-16T15:33:37;13.00;;;2.70;;
74995;SDS011;63545;51.690;5.202;2022-10-16T15:36:02;10.03;;;2.80;;
74995;SDS011;63545;51.690;5.202;2022-10-16T15:38:28;9.57;;;2.27;;
74995;SDS011;63545;51.690;5.202;2022-10-16T15:40:54;11.25;;;2.42;;
74995;SDS011;63545;51.690;5.202;2022-10-16T15:43:19;9.00;;;2.00;;
74995;SDS011;63545;51.690;5.202;2022-10-16T15:46:04;8.30;;;2.43;;
74995;SDS011;63545;51.690;5.202;2022-10-16T15:48:32;11.13;;;2.20;;
74995;SDS011;63545;51.690;5.202;2022-10-16T15:50:58;10.25;;;2.63;;
74995;SDS011;63545;51.690;5.202;2022-10-16T15:53:24;9.60;;;2.78;;
74995;SDS011;63545;51.690;5.202;2022-10-16T15:55:49;8.13;;;2.30;;
74995;SDS011;63545;51.690;5.202;2022-10-16T15:58:15;8.70;;;2.50;;
74995;SDS011;63545;51.690;5.202;2022-10-16T16:00:40;8.90;;;2.57;;
74995;SDS011;63545;51.690;5.202;2022-10-16T16:03:05;10.23;;;3.30;;
74995;SDS011;63545;51.690;5.202;2022-10-16T16:05:31;14.20;;;2.30;;
74995;SDS011;63545;51.690;5.202;2022-10-16T16:07:58;10.77;;;2.55;;
74995;SDS011;63545;51.690;5.202;2022-10-16T16:10:23;12.82;;;2.90;;
74995;SDS011;63545;51.690;5.202;2022-10-16T16:12:49;10.53;;;2.70;;
74995;SDS011;63545;51.690;5.202;2022-10-16T16:15:17;7.28;;;2.40;;
74995;SDS011;63545;51.690;5.202;2022-10-16T16:17:42;7.67;;;2.20;;
74995;SDS011;63545;51.690;5.202;2022-10-16T16:20:09;12.32;;;2.35;;
74995;SDS011;63545;51.690;5.202;2022-10-16T16:22:35;11.73;;;2.30;;
74995;SDS011;63545;51.690;5.202;2022-10-16T16:25:00;9.37;;;2.40;;
74995;SDS011;63545;51.690;5.202;2022-10-16T16:27:25;13.27;;;2.40;;
74995;SDS011;63545;51.690;5.202;2022-10-16T16:29:51;9.20;;;2.93;;
74995;SDS011;63545;51.690;5.202;2022-10-16T16:32:16;6.18;;;2.10;;
74995;SDS011;63545;51.690;5.202;2022-10-16T16:34:41;11.60;;;2.60;;
74995;SDS011;63545;51.690;5.202;2022-10-16T16:37:07;6.80;;;2.37;;
74995;SDS011;63545;51.690;5.202;2022-10-16T16:39:32;5.33;;;2.40;;
74995;SDS011;63545;51.690;5.202;2022-10-16T16:41:58;9.10;;;2.97;;
74995;SDS011;63545;51.690;5.202;2022-10-16T16:44:23;8.30;;;2.53;;
74995;SDS011;63545;51.690;5.202;2022-10-16T16:46:49;9.53;;;2.90;;